sensor_id;sensor_type;location;lat;lon;timestamp;P1;durP1;ratioP1;P2;durP2;ratioP2
78670;SDS011;68277;52.724;6.516;2023-03-01T00:01:14;701.78;;;667.70;;
78670;SDS011;68277;52.724;6.516;2023-03-01T00:03:44;694.88;;;661.65;;
78670;SDS011;68277;52.724;6.516;2023-03-01T00:06:10;672.88;;;640.47;;
78670;SDS011;68277;52.724;6.516;2023-03-01T00:08:36;696.17;;;663.05;;
78670;SDS011;68277;52.724;6.516;2023-03-01T00:13:30;690.00;;;654.67;;
78670;SDS011;68277;52.724;6.516;2023-03-01T00:15:56;680.97;;;645.85;;
78670;SDS011;68277;52.724;6.516;2023-03-01T00:18:22;688.28;;;654.78;;
78670;SDS011;68277;52.724;6.516;2023-03-01T00:20:51;652.03;;;620.25;;
78670;SDS011;68277;52.724;6.516;2023-03-01T00:23:18;660.58;;;628.45;;
78670;SDS011;68277;52.724;6.516;2023-03-01T00:25:44;688.72;;;655.58;;
78670;SDS011;68277;52.724;6.516;2023-03-01T00:28:10;666.17;;;634.22;;
78670;SDS011;68277;52.724;6.516;2023-03-01T00:30:35;678.65;;;643.75;;
78670;SDS011;68277;52.724;6.516;2023-03-01T00:33:01;659.58;;;627.25;;
78670;SDS011;68277;52.724;6.516;2023-03-01T00:35:26;667.75;;;635.97;;
78670;SDS011;68277;52.724;6.516;2023-03-01T00:37:52;692.67;;;659.95;;
78670;SDS011;68277;52.724;6.516;2023-03-01T00:40:23;636.35;;;604.72;;
78670;SDS011;68277;52.724;6.516;2023-03-01T00:42:49;669.45;;;637.13;;
78670;SDS011;68277;52.724;6.516;2023-03-01T00:45:14;674.90;;;642.30;;
78670;SDS011;68277;52.724;6.516;2023-03-01T00:47:40;630.70;;;599.13;;
78670;SDS011;68277;52.724;6.516;2023-03-01T00:50:05;670.60;;;638.15;;
78670;SDS011;68277;52.724;6.516;2023-03-01T00:52:31;678.42;;;645.22;;
78670;SDS011;68277;52.724;6.516;2023-03-01T00:54:56;665.10;;;630.35;;
78670;SDS011;68277;52.724;6.516;2023-03-01T00:57:22;683.40;;;651.10;;
78670;SDS011;68277;52.724;6.516;2023-03-01T00:59:48;689.85;;;656.65;;
78670;SDS011;68277;52.724;6.516;2023-03-01T01:02:14;646.95;;;615.75;;
78670;SDS011;68277;52.724;6.516;2023-03-01T01:04:40;675.58;;;643.25;;
78670;SDS011;68277;52.724;6.516;2023-03-01T01:07:06;643.88;;;612.50;;
78670;SDS011;68277;52.724;6.516;2023-03-01T01:09:31;666.85;;;634.88;;
78670;SDS011;68277;52.724;6.516;2023-03-01T01:11:56;673.47;;;641.10;;
78670;SDS011;68277;52.724;6.516;2023-03-01T01:14:22;657.92;;;625.97;;
78670;SDS011;68277;52.724;6.516;2023-03-01T01:16:47;650.78;;;619.53;;
78670;SDS011;68277;52.724;6.516;2023-03-01T01:19:13;611.58;;;581.03;;
78670;SDS011;68277;52.724;6.516;2023-03-01T01:21:40;677.60;;;645.78;;
78670;SDS011;68277;52.724;6.516;2023-03-01T01:24:08;671.42;;;638.92;;
78670;SDS011;68277;52.724;6.516;2023-03-01T01:26:34;618.53;;;587.35;;
78670;SDS011;68277;52.724;6.516;2023-03-01T01:29:00;695.97;;;663.60;;
78670;SDS011;68277;52.724;6.516;2023-03-01T01:31:27;675.55;;;643.50;;
78670;SDS011;68277;52.724;6.516;2023-03-01T01:33:53;676.75;;;644.58;;
78670;SDS011;68277;52.724;6.516;2023-03-01T01:36:19;674.78;;;637.83;;
78670;SDS011;68277;52.724;6.516;2023-03-01T01:38:46;640.00;;;608.85;;
78670;SDS011;68277;52.724;6.516;2023-03-01T01:41:12;656.75;;;624.95;;
78670;SDS011;68277;52.724;6.516;2023-03-01T01:43:40;659.15;;;627.33;;
78670;SDS011;68277;52.724;6.516;2023-03-01T01:46:14;658.00;;;626.53;;
78670;SDS011;68277;52.724;6.516;2023-03-01T01:48:48;649.72;;;618.42;;
78670;SDS011;68277;52.724;6.516;2023-03-01T01:51:23;657.70;;;625.53;;
78670;SDS011;68277;52.724;6.516;2023-03-01T01:53:54;649.30;;;617.92;;
78670;SDS011;68277;52.724;6.516;2023-03-01T01:56:25;663.15;;;631.55;;
78670;SDS011;68277;52.724;6.516;2023-03-01T01:58:53;646.00;;;613.88;;
78670;SDS011;68277;52.724;6.516;2023-03-01T02:01:19;661.45;;;630.17;;
78670;SDS011;68277;52.724;6.516;2023-03-01T02:03:45;630.15;;;599.40;;
78670;SDS011;68277;52.724;6.516;2023-03-01T02:06:20;653.72;;;619.53;;
78670;SDS011;68277;52.724;6.516;2023-03-01T02:08:55;649.83;;;617.63;;
78670;SDS011;68277;52.724;6.516;2023-03-01T02:11:24;625.65;;;594.75;;
78670;SDS011;68277;52.724;6.516;2023-03-01T02:13:52;660.45;;;628.47;;
78670;SDS011;68277;52.724;6.516;2023-03-01T02:16:19;658.20;;;625.97;;
78670;SDS011;68277;52.724;6.516;2023-03-01T02:18:45;673.58;;;641.67;;
78670;SDS011;68277;52.724;6.516;2023-03-01T02:21:23;698.60;;;660.42;;
78670;SDS011;68277;52.724;6.516;2023-03-01T02:23:50;618.70;;;588.00;;
78670;SDS011;68277;52.724;6.516;2023-03-01T02:26:29;615.80;;;585.03;;
78670;SDS011;68277;52.724;6.516;2023-03-01T02:29:02;633.65;;;602.63;;
78670;SDS011;68277;52.724;6.516;2023-03-01T02:31:27;667.58;;;636.35;;
78670;SDS011;68277;52.724;6.516;2023-03-01T02:34:09;660.67;;;629.05;;
78670;SDS011;68277;52.724;6.516;2023-03-01T02:36:38;683.08;;;645.40;;
78670;SDS011;68277;52.724;6.516;2023-03-01T02:39:08;608.80;;;578.42;;
78670;SDS011;68277;52.724;6.516;2023-03-01T02:41:40;650.80;;;619.70;;
78670;SDS011;68277;52.724;6.516;2023-03-01T02:44:07;667.90;;;636.33;;
78670;SDS011;68277;52.724;6.516;2023-03-01T02:46:33;658.33;;;626.90;;
78670;SDS011;68277;52.724;6.516;2023-03-01T02:49:20;650.83;;;619.28;;
78670;SDS011;68277;52.724;6.516;2023-03-01T02:57:31;611.50;;;581.10;;
78670;SDS011;68277;52.724;6.516;2023-03-01T03:00:03;648.50;;;617.33;;
78670;SDS011;68277;52.724;6.516;2023-03-01T03:02:35;596.22;;;566.38;;
78670;SDS011;68277;52.724;6.516;2023-03-01T03:07:35;667.78;;;635.70;;
78670;SDS011;68277;52.724;6.516;2023-03-01T03:10:03;655.38;;;624.00;;
78670;SDS011;68277;52.724;6.516;2023-03-01T03:12:31;650.78;;;619.25;;
78670;SDS011;68277;52.724;6.516;2023-03-01T03:14:56;689.90;;;657.65;;
78670;SDS011;68277;52.724;6.516;2023-03-01T03:17:22;621.42;;;590.88;;
78670;SDS011;68277;52.724;6.516;2023-03-01T03:19:48;650.35;;;618.72;;
78670;SDS011;68277;52.724;6.516;2023-03-01T03:22:13;605.60;;;575.38;;
78670;SDS011;68277;52.724;6.516;2023-03-01T03:24:39;665.22;;;633.25;;
78670;SDS011;68277;52.724;6.516;2023-03-01T03:27:05;606.67;;;575.97;;
78670;SDS011;68277;52.724;6.516;2023-03-01T03:29:31;613.25;;;583.03;;
78670;SDS011;68277;52.724;6.516;2023-03-01T03:31:57;617.78;;;587.05;;
78670;SDS011;68277;52.724;6.516;2023-03-01T03:34:22;661.78;;;630.60;;
78670;SDS011;68277;52.724;6.516;2023-03-01T03:36:48;630.17;;;599.72;;
78670;SDS011;68277;52.724;6.516;2023-03-01T03:39:22;635.03;;;604.25;;
78670;SDS011;68277;52.724;6.516;2023-03-01T03:41:48;592.03;;;562.05;;
78670;SDS011;68277;52.724;6.516;2023-03-01T03:44:14;600.97;;;571.28;;
78670;SDS011;68277;52.724;6.516;2023-03-01T03:46:39;628.22;;;597.70;;
78670;SDS011;68277;52.724;6.516;2023-03-01T03:49:05;595.25;;;565.63;;
78670;SDS011;68277;52.724;6.516;2023-03-01T03:51:30;615.00;;;584.50;;
78670;SDS011;68277;52.724;6.516;2023-03-01T03:53:55;624.42;;;593.72;;
78670;SDS011;68277;52.724;6.516;2023-03-01T03:56:21;654.95;;;623.20;;
78670;SDS011;68277;52.724;6.516;2023-03-01T03:58:51;655.60;;;624.08;;
78670;SDS011;68277;52.724;6.516;2023-03-01T04:01:17;584.88;;;554.72;;
78670;SDS011;68277;52.724;6.516;2023-03-01T04:03:43;581.92;;;552.45;;
78670;SDS011;68277;52.724;6.516;2023-03-01T04:06:11;639.30;;;608.33;;
78670;SDS011;68277;52.724;6.516;2023-03-01T04:08:40;620.97;;;590.33;;
78670;SDS011;68277;52.724;6.516;2023-03-01T04:11:06;599.58;;;569.50;;
78670;SDS011;68277;52.724;6.516;2023-03-01T04:13:50;587.25;;;557.72;;
78670;SDS011;68277;52.724;6.516;2023-03-01T04:16:17;586.90;;;557.30;;
78670;SDS011;68277;52.724;6.516;2023-03-01T04:18:43;572.25;;;543.38;;
78670;SDS011;68277;52.724;6.516;2023-03-01T04:21:09;627.53;;;596.85;;
78670;SDS011;68277;52.724;6.516;2023-03-01T04:23:36;617.42;;;587.15;;
78670;SDS011;68277;52.724;6.516;2023-03-01T04:26:01;570.28;;;540.97;;
78670;SDS011;68277;52.724;6.516;2023-03-01T04:28:30;630.83;;;599.92;;
78670;SDS011;68277;52.724;6.516;2023-03-01T04:31:08;614.03;;;582.70;;
78670;SDS011;68277;52.724;6.516;2023-03-01T04:33:39;622.25;;;591.45;;
78670;SDS011;68277;52.724;6.516;2023-03-01T04:36:06;620.33;;;589.60;;
78670;SDS011;68277;52.724;6.516;2023-03-01T04:38:34;565.38;;;536.03;;
78670;SDS011;68277;52.724;6.516;2023-03-01T04:41:00;603.08;;;572.90;;
78670;SDS011;68277;52.724;6.516;2023-03-01T04:43:25;613.22;;;579.05;;
78670;SDS011;68277;52.724;6.516;2023-03-01T04:45:50;615.45;;;584.88;;
78670;SDS011;68277;52.724;6.516;2023-03-01T04:48:19;595.22;;;565.03;;
78670;SDS011;68277;52.724;6.516;2023-03-01T04:50:44;630.15;;;597.30;;
78670;SDS011;68277;52.724;6.516;2023-03-01T04:53:18;573.67;;;544.22;;
78670;SDS011;68277;52.724;6.516;2023-03-01T04:55:44;574.08;;;544.95;;
78670;SDS011;68277;52.724;6.516;2023-03-01T04:58:09;627.08;;;596.15;;
78670;SDS011;68277;52.724;6.516;2023-03-01T05:00:38;581.58;;;551.15;;
78670;SDS011;68277;52.724;6.516;2023-03-01T05:03:11;597.33;;;566.90;;
78670;SDS011;68277;52.724;6.516;2023-03-01T05:05:39;556.65;;;526.92;;
78670;SDS011;68277;52.724;6.516;2023-03-01T05:08:09;616.50;;;585.45;;
78670;SDS011;68277;52.724;6.516;2023-03-01T05:10:42;593.22;;;563.22;;
78670;SDS011;68277;52.724;6.516;2023-03-01T05:13:15;576.05;;;546.05;;
78670;SDS011;68277;52.724;6.516;2023-03-01T05:15:55;578.38;;;548.58;;
78670;SDS011;68277;52.724;6.516;2023-03-01T05:18:23;618.03;;;586.70;;
78670;SDS011;68277;52.724;6.516;2023-03-01T05:20:51;558.95;;;529.58;;
78670;SDS011;68277;52.724;6.516;2023-03-01T05:23:24;573.30;;;543.08;;
78670;SDS011;68277;52.724;6.516;2023-03-01T05:25:50;610.80;;;578.78;;
78670;SDS011;68277;52.724;6.516;2023-03-01T05:28:17;611.72;;;581.03;;
78670;SDS011;68277;52.724;6.516;2023-03-01T05:30:44;582.80;;;552.13;;
78670;SDS011;68277;52.724;6.516;2023-03-01T05:33:10;615.13;;;583.67;;
78670;SDS011;68277;52.724;6.516;2023-03-01T05:35:38;558.95;;;529.58;;
78670;SDS011;68277;52.724;6.516;2023-03-01T05:38:06;555.90;;;525.83;;
78670;SDS011;68277;52.724;6.516;2023-03-01T05:40:32;568.00;;;538.28;;
78670;SDS011;68277;52.724;6.516;2023-03-01T05:42:58;564.92;;;534.38;;
78670;SDS011;68277;52.724;6.516;2023-03-01T05:45:24;572.50;;;542.88;;
78670;SDS011;68277;52.724;6.516;2023-03-01T05:47:51;598.10;;;567.50;;
78670;SDS011;68277;52.724;6.516;2023-03-01T05:50:18;626.10;;;595.47;;
78670;SDS011;68277;52.724;6.516;2023-03-01T05:52:46;604.20;;;573.70;;
78670;SDS011;68277;52.724;6.516;2023-03-01T05:55:17;615.28;;;584.40;;
78670;SDS011;68277;52.724;6.516;2023-03-01T05:57:43;554.25;;;524.92;;
78670;SDS011;68277;52.724;6.516;2023-03-01T06:00:09;618.95;;;587.40;;
78670;SDS011;68277;52.724;6.516;2023-03-01T06:02:36;607.85;;;577.47;;
78670;SDS011;68277;52.724;6.516;2023-03-01T06:05:03;594.10;;;563.33;;
78670;SDS011;68277;52.724;6.516;2023-03-01T06:07:29;596.22;;;566.15;;
78670;SDS011;68277;52.724;6.516;2023-03-01T06:09:55;622.67;;;591.28;;
78670;SDS011;68277;52.724;6.516;2023-03-01T06:12:20;612.47;;;581.13;;
78670;SDS011;68277;52.724;6.516;2023-03-01T06:14:46;619.15;;;587.88;;
78670;SDS011;68277;52.724;6.516;2023-03-01T06:17:12;571.85;;;541.95;;
78670;SDS011;68277;52.724;6.516;2023-03-01T06:19:38;572.83;;;543.13;;
78670;SDS011;68277;52.724;6.516;2023-03-01T06:22:03;551.10;;;521.38;;
78670;SDS011;68277;52.724;6.516;2023-03-01T06:24:29;612.55;;;581.20;;
78670;SDS011;68277;52.724;6.516;2023-03-01T06:26:54;577.97;;;546.85;;
78670;SDS011;68277;52.724;6.516;2023-03-01T06:29:20;619.95;;;588.00;;
78670;SDS011;68277;52.724;6.516;2023-03-01T06:31:47;565.75;;;535.80;;
78670;SDS011;68277;52.724;6.516;2023-03-01T06:34:13;607.25;;;575.92;;
78670;SDS011;68277;52.724;6.516;2023-03-01T06:36:42;566.58;;;536.45;;
78670;SDS011;68277;52.724;6.516;2023-03-01T06:39:07;589.15;;;558.45;;
78670;SDS011;68277;52.724;6.516;2023-03-01T06:41:35;641.13;;;608.85;;
78670;SDS011;68277;52.724;6.516;2023-03-01T06:44:00;629.85;;;597.20;;
78670;SDS011;68277;52.724;6.516;2023-03-01T06:46:27;608.20;;;577.10;;
78670;SDS011;68277;52.724;6.516;2023-03-01T06:48:53;589.75;;;559.05;;
78670;SDS011;68277;52.724;6.516;2023-03-01T06:51:18;617.17;;;586.15;;
78670;SDS011;68277;52.724;6.516;2023-03-01T06:53:45;647.00;;;614.05;;
78670;SDS011;68277;52.724;6.516;2023-03-01T06:56:11;623.45;;;591.47;;
78670;SDS011;68277;52.724;6.516;2023-03-01T06:58:36;634.67;;;602.22;;
78670;SDS011;68277;52.724;6.516;2023-03-01T07:01:05;640.47;;;608.25;;
78670;SDS011;68277;52.724;6.516;2023-03-01T07:05:57;597.40;;;565.83;;
78670;SDS011;68277;52.724;6.516;2023-03-01T07:08:23;620.88;;;588.97;;
78670;SDS011;68277;52.724;6.516;2023-03-01T07:10:48;641.15;;;608.63;;
78670;SDS011;68277;52.724;6.516;2023-03-01T07:13:20;611.50;;;579.90;;
78670;SDS011;68277;52.724;6.516;2023-03-01T07:15:45;590.53;;;559.58;;
78670;SDS011;68277;52.724;6.516;2023-03-01T07:18:10;660.00;;;623.85;;
78670;SDS011;68277;52.724;6.516;2023-03-01T07:20:36;645.80;;;613.28;;
78670;SDS011;68277;52.724;6.516;2023-03-01T07:23:01;591.88;;;561.08;;
78670;SDS011;68277;52.724;6.516;2023-03-01T07:25:26;635.13;;;603.40;;
78670;SDS011;68277;52.724;6.516;2023-03-01T07:27:52;661.45;;;628.72;;
78670;SDS011;68277;52.724;6.516;2023-03-01T07:30:18;679.35;;;646.70;;
78670;SDS011;68277;52.724;6.516;2023-03-01T07:32:44;653.97;;;621.38;;
78670;SDS011;68277;52.724;6.516;2023-03-01T07:35:10;692.10;;;658.35;;
78670;SDS011;68277;52.724;6.516;2023-03-01T07:37:36;712.38;;;677.45;;
78670;SDS011;68277;52.724;6.516;2023-03-01T07:40:01;721.25;;;685.10;;
78670;SDS011;68277;52.724;6.516;2023-03-01T07:42:29;721.90;;;685.38;;
78670;SDS011;68277;52.724;6.516;2023-03-01T07:44:59;774.42;;;734.10;;
78670;SDS011;68277;52.724;6.516;2023-03-01T07:47:25;747.97;;;708.55;;
78670;SDS011;68277;52.724;6.516;2023-03-01T07:49:50;807.15;;;764.30;;
78670;SDS011;68277;52.724;6.516;2023-03-01T07:52:16;815.22;;;771.28;;
78670;SDS011;68277;52.724;6.516;2023-03-01T07:54:42;820.10;;;775.25;;
78670;SDS011;68277;52.724;6.516;2023-03-01T07:57:09;831.90;;;785.60;;
78670;SDS011;68277;52.724;6.516;2023-03-01T07:59:35;834.58;;;787.53;;
78670;SDS011;68277;52.724;6.516;2023-03-01T08:02:00;852.53;;;803.80;;
78670;SDS011;68277;52.724;6.516;2023-03-01T08:04:26;850.90;;;802.33;;
78670;SDS011;68277;52.724;6.516;2023-03-01T08:06:51;854.92;;;806.15;;
78670;SDS011;68277;52.724;6.516;2023-03-01T08:09:18;860.95;;;811.63;;
78670;SDS011;68277;52.724;6.516;2023-03-01T08:11:43;868.83;;;817.83;;
78670;SDS011;68277;52.724;6.516;2023-03-01T08:14:08;873.35;;;821.75;;
78670;SDS011;68277;52.724;6.516;2023-03-01T08:16:35;869.80;;;818.85;;
78670;SDS011;68277;52.724;6.516;2023-03-01T08:19:08;866.90;;;815.72;;
78670;SDS011;68277;52.724;6.516;2023-03-01T08:21:36;881.58;;;829.15;;
78670;SDS011;68277;52.724;6.516;2023-03-01T08:24:02;879.50;;;826.65;;
78670;SDS011;68277;52.724;6.516;2023-03-01T08:26:29;873.03;;;820.65;;
78670;SDS011;68277;52.724;6.516;2023-03-01T08:28:55;890.58;;;836.97;;
78670;SDS011;68277;52.724;6.516;2023-03-01T08:31:28;898.83;;;844.13;;
78670;SDS011;68277;52.724;6.516;2023-03-01T08:33:57;891.72;;;837.17;;
78670;SDS011;68277;52.724;6.516;2023-03-01T08:36:28;903.78;;;848.50;;
78670;SDS011;68277;52.724;6.516;2023-03-01T08:38:55;905.63;;;849.00;;
78670;SDS011;68277;52.724;6.516;2023-03-01T08:41:21;914.88;;;857.80;;
78670;SDS011;68277;52.724;6.516;2023-03-01T08:43:47;923.83;;;864.80;;
78670;SDS011;68277;52.724;6.516;2023-03-01T08:46:12;922.95;;;863.35;;
78670;SDS011;68277;52.724;6.516;2023-03-01T08:48:38;934.28;;;873.03;;
78670;SDS011;68277;52.724;6.516;2023-03-01T08:51:11;932.25;;;871.50;;
78670;SDS011;68277;52.724;6.516;2023-03-01T08:53:39;930.80;;;870.08;;
78670;SDS011;68277;52.724;6.516;2023-03-01T08:56:05;939.67;;;877.72;;
78670;SDS011;68277;52.724;6.516;2023-03-01T08:58:30;942.03;;;878.92;;
78670;SDS011;68277;52.724;6.516;2023-03-01T09:00:56;944.75;;;881.63;;
78670;SDS011;68277;52.724;6.516;2023-03-01T09:03:23;939.80;;;877.08;;
78670;SDS011;68277;52.724;6.516;2023-03-01T09:05:49;939.42;;;876.58;;
78670;SDS011;68277;52.724;6.516;2023-03-01T09:08:16;938.50;;;876.30;;
78670;SDS011;68277;52.724;6.516;2023-03-01T09:10:42;938.00;;;875.60;;
78670;SDS011;68277;52.724;6.516;2023-03-01T09:13:07;951.25;;;887.30;;
78670;SDS011;68277;52.724;6.516;2023-03-01T09:15:33;961.40;;;896.15;;
78670;SDS011;68277;52.724;6.516;2023-03-01T09:17:59;956.22;;;890.47;;
78670;SDS011;68277;52.724;6.516;2023-03-01T09:20:24;963.35;;;896.70;;
78670;SDS011;68277;52.724;6.516;2023-03-01T09:22:51;957.00;;;890.25;;
78670;SDS011;68277;52.724;6.516;2023-03-01T09:25:16;960.40;;;893.17;;
78670;SDS011;68277;52.724;6.516;2023-03-01T09:27:42;974.28;;;905.28;;
78670;SDS011;68277;52.724;6.516;2023-03-01T09:30:07;973.63;;;904.63;;
78670;SDS011;68277;52.724;6.516;2023-03-01T09:32:33;968.50;;;899.85;;
78670;SDS011;68277;52.724;6.516;2023-03-01T09:34:59;980.17;;;909.47;;
78670;SDS011;68277;52.724;6.516;2023-03-01T09:37:35;975.30;;;905.70;;
78670;SDS011;68277;52.724;6.516;2023-03-01T09:40:02;978.50;;;907.15;;
78670;SDS011;68277;52.724;6.516;2023-03-01T09:42:33;983.90;;;912.80;;
78670;SDS011;68277;52.724;6.516;2023-03-01T09:45:04;984.67;;;912.67;;
78670;SDS011;68277;52.724;6.516;2023-03-01T09:47:33;978.97;;;907.38;;
78670;SDS011;68277;52.724;6.516;2023-03-01T09:50:11;976.83;;;904.45;;
78670;SDS011;68277;52.724;6.516;2023-03-01T09:52:43;986.95;;;914.08;;
78670;SDS011;68277;52.724;6.516;2023-03-01T09:55:17;994.00;;;920.90;;
78670;SDS011;68277;52.724;6.516;2023-03-01T09:57:53;989.17;;;916.47;;
78670;SDS011;68277;52.724;6.516;2023-03-01T10:00:30;985.22;;;912.33;;
78670;SDS011;68277;52.724;6.516;2023-03-01T10:08:24;990.35;;;916.67;;
78670;SDS011;68277;52.724;6.516;2023-03-01T10:10:54;989.20;;;915.95;;
78670;SDS011;68277;52.724;6.516;2023-03-01T10:16:00;987.22;;;914.88;;
78670;SDS011;68277;52.724;6.516;2023-03-01T10:18:47;985.20;;;912.63;;
78670;SDS011;68277;52.724;6.516;2023-03-01T10:21:20;985.28;;;913.53;;
78670;SDS011;68277;52.724;6.516;2023-03-01T10:23:46;984.25;;;912.78;;
78670;SDS011;68277;52.724;6.516;2023-03-01T10:26:39;986.15;;;914.75;;
78670;SDS011;68277;52.724;6.516;2023-03-01T10:29:12;984.85;;;913.70;;
78670;SDS011;68277;52.724;6.516;2023-03-01T10:31:40;973.78;;;904.30;;
78670;SDS011;68277;52.724;6.516;2023-03-01T10:34:09;983.40;;;911.78;;
78670;SDS011;68277;52.724;6.516;2023-03-01T10:36:38;980.15;;;909.33;;
78670;SDS011;68277;52.724;6.516;2023-03-01T10:39:11;972.72;;;902.63;;
78670;SDS011;68277;52.724;6.516;2023-03-01T10:41:45;972.58;;;902.55;;
78670;SDS011;68277;52.724;6.516;2023-03-01T10:49:57;976.08;;;906.72;;
78670;SDS011;68277;52.724;6.516;2023-03-01T10:52:24;970.50;;;900.80;;
78670;SDS011;68277;52.724;6.516;2023-03-01T10:54:59;969.13;;;900.33;;
78670;SDS011;68277;52.724;6.516;2023-03-01T10:57:29;965.92;;;898.08;;
78670;SDS011;68277;52.724;6.516;2023-03-01T11:02:48;966.35;;;898.58;;
78670;SDS011;68277;52.724;6.516;2023-03-01T11:05:34;959.38;;;892.83;;
78670;SDS011;68277;52.724;6.516;2023-03-01T11:08:00;959.30;;;892.63;;
78670;SDS011;68277;52.724;6.516;2023-03-01T11:10:35;952.72;;;888.13;;
78670;SDS011;68277;52.724;6.516;2023-03-01T11:15:43;954.47;;;889.88;;
78670;SDS011;68277;52.724;6.516;2023-03-01T11:20:50;936.15;;;873.67;;
78670;SDS011;68277;52.724;6.516;2023-03-01T11:26:02;931.55;;;870.83;;
78670;SDS011;68277;52.724;6.516;2023-03-01T11:28:32;921.10;;;860.65;;
78670;SDS011;68277;52.724;6.516;2023-03-01T11:31:06;930.22;;;868.67;;
78670;SDS011;68277;52.724;6.516;2023-03-01T11:33:41;929.42;;;868.88;;
78670;SDS011;68277;52.724;6.516;2023-03-01T11:45:13;915.13;;;857.05;;
78670;SDS011;68277;52.724;6.516;2023-03-01T11:55:35;896.88;;;841.03;;
78670;SDS011;68277;52.724;6.516;2023-03-01T12:06:29;890.28;;;835.97;;
78670;SDS011;68277;52.724;6.516;2023-03-01T12:17:07;893.40;;;838.60;;
78670;SDS011;68277;52.724;6.516;2023-03-01T12:25:41;882.60;;;829.50;;
78670;SDS011;68277;52.724;6.516;2023-03-01T12:33:57;884.85;;;831.88;;
78670;SDS011;68277;52.724;6.516;2023-03-01T12:39:24;881.72;;;828.35;;
78670;SDS011;68277;52.724;6.516;2023-03-01T12:49:51;890.42;;;837.00;;
78670;SDS011;68277;52.724;6.516;2023-03-01T12:52:39;875.53;;;822.95;;
78670;SDS011;68277;52.724;6.516;2023-03-01T13:00:31;876.13;;;823.72;;
78670;SDS011;68277;52.724;6.516;2023-03-01T13:03:18;892.42;;;839.05;;
78670;SDS011;68277;52.724;6.516;2023-03-01T13:06:21;886.05;;;832.67;;
78670;SDS011;68277;52.724;6.516;2023-03-01T13:09:11;894.10;;;839.90;;
78670;SDS011;68277;52.724;6.516;2023-03-01T13:11:49;881.97;;;830.08;;
78670;SDS011;68277;52.724;6.516;2023-03-01T13:16:48;879.47;;;827.20;;
78670;SDS011;68277;52.724;6.516;2023-03-01T13:19:18;894.70;;;840.90;;
78670;SDS011;68277;52.724;6.516;2023-03-01T13:21:46;881.08;;;828.42;;
78670;SDS011;68277;52.724;6.516;2023-03-01T13:34:46;889.10;;;835.28;;
78670;SDS011;68277;52.724;6.516;2023-03-01T13:37:21;888.15;;;835.10;;
78670;SDS011;68277;52.724;6.516;2023-03-01T13:39:51;882.13;;;828.17;;
78670;SDS011;68277;52.724;6.516;2023-03-01T13:44:57;885.45;;;831.95;;
78670;SDS011;68277;52.724;6.516;2023-03-01T13:47:23;890.60;;;836.63;;
78670;SDS011;68277;52.724;6.516;2023-03-01T13:49:51;895.40;;;841.47;;
78670;SDS011;68277;52.724;6.516;2023-03-01T13:54:53;873.85;;;821.22;;
78670;SDS011;68277;52.724;6.516;2023-03-01T13:57:21;886.92;;;833.45;;
78670;SDS011;68277;52.724;6.516;2023-03-01T13:59:50;881.65;;;828.67;;
78670;SDS011;68277;52.724;6.516;2023-03-01T14:02:16;878.75;;;825.35;;
78670;SDS011;68277;52.724;6.516;2023-03-01T14:04:41;885.30;;;832.08;;
78670;SDS011;68277;52.724;6.516;2023-03-01T14:07:18;881.50;;;828.60;;
78670;SDS011;68277;52.724;6.516;2023-03-01T14:09:45;887.55;;;834.40;;
78670;SDS011;68277;52.724;6.516;2023-03-01T14:18:18;876.67;;;824.20;;
78670;SDS011;68277;52.724;6.516;2023-03-01T14:20:54;880.55;;;828.10;;
78670;SDS011;68277;52.724;6.516;2023-03-01T14:23:22;883.55;;;829.90;;
78670;SDS011;68277;52.724;6.516;2023-03-01T14:25:55;878.40;;;825.78;;
78670;SDS011;68277;52.724;6.516;2023-03-01T14:28:26;876.72;;;824.30;;
78670;SDS011;68277;52.724;6.516;2023-03-01T14:30:56;886.63;;;832.67;;
78670;SDS011;68277;52.724;6.516;2023-03-01T14:36:01;876.67;;;823.80;;
78670;SDS011;68277;52.724;6.516;2023-03-01T14:38:35;880.25;;;827.42;;
78670;SDS011;68277;52.724;6.516;2023-03-01T14:41:09;880.00;;;827.25;;
78670;SDS011;68277;52.724;6.516;2023-03-01T14:43:41;882.97;;;829.83;;
78670;SDS011;68277;52.724;6.516;2023-03-01T14:46:20;889.63;;;835.72;;
78670;SDS011;68277;52.724;6.516;2023-03-01T14:48:49;890.05;;;836.47;;
78670;SDS011;68277;52.724;6.516;2023-03-01T14:51:17;885.08;;;831.42;;
78670;SDS011;68277;52.724;6.516;2023-03-01T14:53:43;886.30;;;832.78;;
78670;SDS011;68277;52.724;6.516;2023-03-01T14:56:12;880.00;;;826.55;;
78670;SDS011;68277;52.724;6.516;2023-03-01T14:58:39;882.22;;;829.25;;
78670;SDS011;68277;52.724;6.516;2023-03-01T15:01:05;880.97;;;827.55;;
78670;SDS011;68277;52.724;6.516;2023-03-01T15:03:35;877.97;;;825.00;;
78670;SDS011;68277;52.724;6.516;2023-03-01T15:06:03;868.92;;;816.42;;
78670;SDS011;68277;52.724;6.516;2023-03-01T15:08:30;892.60;;;838.55;;
78670;SDS011;68277;52.724;6.516;2023-03-01T15:11:42;874.63;;;821.95;;
78670;SDS011;68277;52.724;6.516;2023-03-01T15:13:52;887.30;;;833.80;;
78670;SDS011;68277;52.724;6.516;2023-03-01T15:16:20;886.80;;;833.50;;
78670;SDS011;68277;52.724;6.516;2023-03-01T15:18:52;878.55;;;825.95;;
78670;SDS011;68277;52.724;6.516;2023-03-01T15:21:21;882.25;;;828.88;;
78670;SDS011;68277;52.724;6.516;2023-03-01T15:23:51;885.17;;;832.03;;
78670;SDS011;68277;52.724;6.516;2023-03-01T15:26:22;876.95;;;824.60;;
78670;SDS011;68277;52.724;6.516;2023-03-01T15:29:04;872.67;;;819.85;;
78670;SDS011;68277;52.724;6.516;2023-03-01T15:31:31;879.00;;;826.38;;
78670;SDS011;68277;52.724;6.516;2023-03-01T15:34:08;890.13;;;836.33;;
78670;SDS011;68277;52.724;6.516;2023-03-01T15:36:39;870.65;;;818.08;;
78670;SDS011;68277;52.724;6.516;2023-03-01T15:41:52;885.33;;;832.60;;
78670;SDS011;68277;52.724;6.516;2023-03-01T15:44:23;866.20;;;814.63;;
78670;SDS011;68277;52.724;6.516;2023-03-01T15:46:52;878.60;;;826.38;;
78670;SDS011;68277;52.724;6.516;2023-03-01T15:49:34;870.92;;;819.60;;
78670;SDS011;68277;52.724;6.516;2023-03-01T15:52:23;862.55;;;811.25;;
78670;SDS011;68277;52.724;6.516;2023-03-01T15:55:03;859.53;;;808.22;;
78670;SDS011;68277;52.724;6.516;2023-03-01T15:57:30;865.33;;;814.35;;
78670;SDS011;68277;52.724;6.516;2023-03-01T15:59:56;871.55;;;819.63;;
78670;SDS011;68277;52.724;6.516;2023-03-01T16:02:22;859.78;;;809.08;;
78670;SDS011;68277;52.724;6.516;2023-03-01T16:04:49;855.90;;;806.00;;
78670;SDS011;68277;52.724;6.516;2023-03-01T16:07:15;867.53;;;816.28;;
78670;SDS011;68277;52.724;6.516;2023-03-01T16:09:40;872.55;;;821.15;;
78670;SDS011;68277;52.724;6.516;2023-03-01T16:12:08;873.70;;;822.13;;
78670;SDS011;68277;52.724;6.516;2023-03-01T16:14:39;855.97;;;805.90;;